createdAt,value
2022-08-14T00:00:48.300Z,1008.93
2022-08-14T00:01:54.820Z,1008.92
2022-08-14T00:02:48.298Z,1008.91
2022-08-14T00:03:48.305Z,1008.92
2022-08-14T00:04:48.261Z,1008.95
2022-08-14T00:05:48.244Z,1008.92
2022-08-14T00:06:48.258Z,1008.97
2022-08-14T00:07:48.250Z,1008.94
2022-08-14T00:08:48.247Z,1008.98
2022-08-14T00:09:55.813Z,1008.98
2022-08-14T00:10:51.532Z,1008.96
2022-08-14T00:11:48.175Z,1008.97
2022-08-14T00:12:56.265Z,1009.00
2022-08-14T00:13:52.671Z,1009.01
2022-08-14T00:14:48.157Z,1008.97
2022-08-14T00:15:48.525Z,1008.98
2022-08-14T00:16:48.123Z,1008.94
2022-08-14T00:17:53.029Z,1008.99
2022-08-14T00:19:06.633Z,1008.97
2022-08-14T00:19:48.107Z,1008.94
2022-08-14T00:20:48.107Z,1008.95
2022-08-14T00:21:50.291Z,1008.94
2022-08-14T00:22:57.017Z,1008.94
2022-08-14T00:23:54.045Z,1008.94
2022-08-14T00:24:48.077Z,1008.92
2022-08-14T00:25:54.117Z,1008.91
2022-08-14T00:26:48.035Z,1008.93
2022-08-14T00:27:49.163Z,1008.91
2022-08-14T00:28:48.003Z,1008.92
2022-08-14T00:29:47.980Z,1008.92
2022-08-14T00:30:47.993Z,1008.91
2022-08-14T00:31:47.971Z,1008.91
2022-08-14T00:32:52.652Z,1008.91
2022-08-14T00:33:52.211Z,1008.90
2022-08-14T00:34:48.230Z,1008.91
2022-08-14T00:36:35.133Z,1008.93
2022-08-14T00:36:52.973Z,1008.90
2022-08-14T00:37:47.897Z,1008.90
2022-08-14T00:38:48.003Z,1008.89
2022-08-14T00:39:47.896Z,1008.89
2022-08-14T00:40:47.903Z,1008.85
2022-08-14T00:41:47.858Z,1008.85
2022-08-14T00:43:11.946Z,1008.87
2022-08-14T00:43:47.848Z,1008.83
2022-08-14T00:44:47.826Z,1008.83
2022-08-14T00:45:52.614Z,1008.81
2022-08-14T00:46:47.816Z,1008.82
2022-08-14T00:47:47.780Z,1008.83
2022-08-14T00:48:49.072Z,1008.82
2022-08-14T00:49:47.759Z,1008.78
2022-08-14T00:50:47.762Z,1008.76
2022-08-14T00:51:48.241Z,1008.73
2022-08-14T00:52:51.047Z,1008.73
2022-08-14T00:53:47.718Z,1008.73
2022-08-14T00:54:47.715Z,1008.69
2022-08-14T00:55:47.695Z,1008.73
2022-08-14T00:56:47.704Z,1008.75
2022-08-14T00:57:47.672Z,1008.73
2022-08-14T00:58:48.584Z,1008.75
2022-08-14T00:59:47.652Z,1008.71
2022-08-14T01:00:51.217Z,1008.72
2022-08-14T01:01:47.717Z,1008.73
2022-08-14T01:02:47.641Z,1008.75
2022-08-14T01:03:49.692Z,1008.71
2022-08-14T01:04:53.516Z,1008.74
2022-08-14T01:05:52.075Z,1008.71
2022-08-14T01:06:47.581Z,1008.71
2022-08-14T01:07:56.905Z,1008.68
2022-08-14T01:08:51.164Z,1008.68
2022-08-14T01:09:47.553Z,1008.65
2022-08-14T01:10:47.541Z,1008.63
2022-08-14T01:12:02.947Z,1008.64
2022-08-14T01:12:47.533Z,1008.65
2022-08-14T01:13:56.207Z,1008.64
2022-08-14T01:14:47.501Z,1008.67
2022-08-14T01:15:58.601Z,1008.64
2022-08-14T01:16:47.482Z,1008.64
2022-08-14T01:17:49.831Z,1008.63
2022-08-14T01:19:01.286Z,1008.64
2022-08-14T01:19:48.069Z,1008.63
2022-08-14T01:20:47.436Z,1008.60
2022-08-14T01:21:53.049Z,1008.62
2022-08-14T01:22:47.412Z,1008.60
2022-08-14T01:23:47.409Z,1008.59
2022-08-14T01:24:47.406Z,1008.61
2022-08-14T01:25:47.381Z,1008.59
2022-08-14T01:26:50.891Z,1008.60
2022-08-14T01:27:56.893Z,1008.59
2022-08-14T01:28:56.534Z,1008.58
2022-08-14T01:29:58.626Z,1008.60
2022-08-14T01:30:47.338Z,1008.57
2022-08-14T01:31:50.390Z,1008.60
2022-08-14T01:32:51.386Z,1008.61
2022-08-14T01:35:15.831Z,1008.59
2022-08-14T01:36:04.730Z,1008.61
2022-08-14T01:36:22.831Z,1008.58
2022-08-14T01:36:47.274Z,1008.60
2022-08-14T01:37:56.603Z,1008.59
2022-08-14T01:38:48.835Z,1008.62
2022-08-14T01:39:47.276Z,1008.59
2022-08-14T01:40:47.221Z,1008.59
2022-08-14T01:41:47.217Z,1008.56
2022-08-14T01:42:47.434Z,1008.54
2022-08-14T01:43:56.322Z,1008.54
2022-08-14T01:44:49.996Z,1008.55
2022-08-14T01:45:49.197Z,1008.54
2022-08-14T01:46:47.164Z,1008.55
2022-08-14T01:47:47.152Z,1008.54
2022-08-14T01:48:47.139Z,1008.51
2022-08-14T01:50:01.349Z,1008.57
2022-08-14T01:50:47.115Z,1008.56
2022-08-14T01:51:47.095Z,1008.59
2022-08-14T01:52:59.127Z,1008.57
2022-08-14T01:53:47.090Z,1008.60
2022-08-14T01:54:47.081Z,1008.61
2022-08-14T01:55:47.067Z,1008.60
2022-08-14T01:56:47.050Z,1008.57
2022-08-14T01:58:00.827Z,1008.60
2022-08-14T01:58:57.616Z,1008.60
2022-08-14T01:59:47.021Z,1008.55
2022-08-14T02:00:47.865Z,1008.54
2022-08-14T02:01:58.053Z,1008.53
2022-08-14T02:02:47.023Z,1008.56
2022-08-14T02:03:49.974Z,1008.54
2022-08-14T02:04:55.996Z,1008.53
2022-08-14T02:05:46.965Z,1008.53
2022-08-14T02:06:46.949Z,1008.55
2022-08-14T02:07:55.418Z,1008.49
2022-08-14T02:08:53.469Z,1008.52
2022-08-14T02:09:55.997Z,1008.50
2022-08-14T02:10:47.721Z,1008.52
2022-08-14T02:11:46.892Z,1008.51
2022-08-14T02:12:54.054Z,1008.48
2022-08-14T02:13:46.872Z,1008.50
2022-08-14T02:14:59.082Z,1008.50
2022-08-14T02:15:48.315Z,1008.50
2022-08-14T02:16:46.851Z,1008.47
2022-08-14T02:17:46.832Z,1008.46
2022-08-14T02:18:46.812Z,1008.47
2022-08-14T02:19:46.803Z,1008.45
2022-08-14T02:20:46.792Z,1008.45
2022-08-14T02:21:46.913Z,1008.46
2022-08-14T02:22:47.777Z,1008.41
2022-08-14T02:23:46.775Z,1008.44
2022-08-14T02:24:47.892Z,1008.43
2022-08-14T02:25:54.336Z,1008.44
2022-08-14T02:26:58.317Z,1008.41
2022-08-14T02:28:58.582Z,1008.40
2022-08-14T02:29:04.331Z,1008.37
2022-08-14T02:29:59.358Z,1008.40
2022-08-14T02:30:46.693Z,1008.38
2022-08-14T02:31:46.676Z,1008.38
2022-08-14T02:32:46.909Z,1008.39
2022-08-14T02:33:46.668Z,1008.38
2022-08-14T02:34:46.650Z,1008.40
2022-08-14T02:35:46.693Z,1008.35
2022-08-14T02:37:03.741Z,1008.36
2022-08-14T02:37:48.228Z,1008.32
2022-08-14T02:38:46.608Z,1008.34
2022-08-14T02:39:46.665Z,1008.30
2022-08-14T02:40:46.600Z,1008.32
2022-08-14T02:41:52.777Z,1008.28
2022-08-14T02:42:55.338Z,1008.29
2022-08-14T02:43:48.439Z,1008.30
2022-08-14T02:44:49.064Z,1008.29
2022-08-14T02:45:47.690Z,1008.32
2022-08-14T02:46:49.762Z,1008.30
2022-08-14T02:47:47.617Z,1008.33
2022-08-14T02:49:05.297Z,1008.32
2022-08-14T02:49:46.497Z,1008.33
2022-08-14T02:50:51.293Z,1008.33
2022-08-14T02:51:46.468Z,1008.32
2022-08-14T02:52:57.535Z,1008.30
2022-08-14T02:53:46.476Z,1008.27
2022-08-14T02:54:46.439Z,1008.26
2022-08-14T02:55:46.443Z,1008.23
2022-08-14T02:57:14.376Z,1008.24
2022-08-14T02:57:46.401Z,1008.20
2022-08-14T02:58:46.428Z,1008.21
2022-08-14T02:59:46.387Z,1008.21
2022-08-14T03:00:46.394Z,1008.18
2022-08-14T03:01:51.205Z,1008.16
2022-08-14T03:02:56.481Z,1008.18
2022-08-14T03:03:46.335Z,1008.15
2022-08-14T03:04:46.326Z,1008.17
2022-08-14T03:05:46.317Z,1008.16
2022-08-14T03:06:57.606Z,1008.15
2022-08-14T03:07:46.309Z,1008.18
2022-08-14T03:08:46.295Z,1008.15
2022-08-14T03:10:25.831Z,1008.11
2022-08-14T03:10:49.256Z,1008.12
2022-08-14T03:11:46.248Z,1008.12
2022-08-14T03:12:46.467Z,1008.11
2022-08-14T03:13:46.239Z,1008.12
2022-08-14T03:14:46.221Z,1008.15
2022-08-14T03:15:46.209Z,1008.13
2022-08-14T03:16:49.246Z,1008.10
2022-08-14T03:17:57.613Z,1008.10
2022-08-14T03:18:46.183Z,1008.11
2022-08-14T03:19:46.159Z,1008.08
2022-08-14T03:20:46.352Z,1008.10
2022-08-14T03:21:46.145Z,1008.07
2022-08-14T03:22:46.412Z,1008.08
2022-08-14T03:23:46.126Z,1008.08
2022-08-14T03:24:46.117Z,1008.07
2022-08-14T03:25:46.103Z,1008.08
2022-08-14T03:26:46.091Z,1008.08
2022-08-14T03:27:48.577Z,1008.08
2022-08-14T03:28:46.097Z,1008.06
2022-08-14T03:29:46.062Z,1008.08
2022-08-14T03:30:46.054Z,1008.10
2022-08-14T03:31:46.393Z,1008.04
2022-08-14T03:32:46.252Z,1008.06
2022-08-14T03:33:51.784Z,1008.07
2022-08-14T03:34:52.711Z,1008.03
2022-08-14T03:36:05.294Z,1008.04
2022-08-14T03:39:06.358Z,1008.06
2022-08-14T03:39:22.198Z,1008.06
2022-08-14T03:39:27.876Z,1008.07
2022-08-14T03:40:27.756Z,1008.07
2022-08-14T03:41:32.991Z,1008.06
2022-08-14T03:42:31.042Z,1008.09
2022-08-14T03:43:28.438Z,1008.06
2022-08-14T03:45:19.716Z,1008.05
2022-08-14T03:45:40.456Z,1008.04
2022-08-14T03:46:46.653Z,1008.04
2022-08-14T03:47:46.230Z,1008.05
2022-08-14T03:48:31.018Z,1008.02
2022-08-14T03:49:29.639Z,1008.03
2022-08-14T03:50:31.505Z,1008.02
2022-08-14T03:51:27.667Z,1008.04
2022-08-14T03:52:40.524Z,1008.03
2022-08-14T03:53:27.615Z,1008.00
2022-08-14T03:54:27.604Z,1007.99
2022-08-14T03:55:27.590Z,1007.98
2022-08-14T03:56:27.740Z,1007.96
2022-08-14T03:57:27.576Z,1007.96
2022-08-14T03:58:35.288Z,1007.94
2022-08-14T03:59:28.550Z,1007.93
2022-08-14T04:00:42.949Z,1007.94
2022-08-14T04:01:29.137Z,1007.96
2022-08-14T04:02:33.122Z,1007.94
2022-08-14T04:03:27.508Z,1007.93
2022-08-14T04:04:27.487Z,1007.89
2022-08-14T04:05:27.486Z,1007.89
2022-08-14T04:06:28.381Z,1007.88
2022-08-14T04:07:27.473Z,1007.86
2022-08-14T04:08:30.727Z,1007.78
2022-08-14T04:09:27.475Z,1007.83
2022-08-14T04:10:31.886Z,1007.83
2022-08-14T04:11:27.427Z,1007.82
2022-08-14T04:12:27.423Z,1007.86
2022-08-14T04:13:27.860Z,1007.90
2022-08-14T04:14:27.384Z,1007.86
2022-08-14T04:15:27.377Z,1007.84
2022-08-14T04:16:31.450Z,1007.85
2022-08-14T04:17:27.357Z,1007.86
2022-08-14T04:18:27.352Z,1007.84
2022-08-14T04:19:32.843Z,1007.83
2022-08-14T04:20:27.331Z,1007.83
2022-08-14T04:21:27.299Z,1007.83
2022-08-14T04:22:27.296Z,1007.87
2022-08-14T04:23:29.435Z,1007.84
2022-08-14T04:24:27.285Z,1007.87
2022-08-14T04:25:27.271Z,1007.85
2022-08-14T04:26:43.168Z,1007.88
2022-08-14T04:27:27.247Z,1007.89
2022-08-14T04:29:01.858Z,1007.89
2022-08-14T04:29:27.240Z,1007.90
2022-08-14T04:30:30.949Z,1007.94
2022-08-14T04:33:01.231Z,1007.92
2022-08-14T04:33:15.909Z,1007.95
2022-08-14T04:33:27.638Z,1007.89
2022-08-14T04:34:28.021Z,1007.90
2022-08-14T04:35:50.718Z,1007.94
2022-08-14T04:36:27.157Z,1007.87
2022-08-14T04:37:27.136Z,1007.88
2022-08-14T04:38:37.036Z,1007.87
2022-08-14T04:39:27.188Z,1007.86
2022-08-14T04:40:27.754Z,1007.84
2022-08-14T04:41:30.384Z,1007.83
2022-08-14T04:42:27.094Z,1007.81
2022-08-14T04:43:38.317Z,1007.84
2022-08-14T04:44:37.099Z,1007.79
2022-08-14T04:45:29.758Z,1007.80
2022-08-14T04:46:56.667Z,1007.81
2022-08-14T04:47:27.028Z,1007.79
2022-08-14T04:48:43.312Z,1007.78
2022-08-14T04:49:27.017Z,1007.83
2022-08-14T04:50:43.952Z,1007.82
2022-08-14T04:51:26.997Z,1007.81
2022-08-14T04:52:26.985Z,1007.85
2022-08-14T04:53:34.796Z,1007.85
2022-08-14T04:54:27.042Z,1007.84
2022-08-14T04:55:27.716Z,1007.86
2022-08-14T04:56:33.842Z,1007.83
2022-08-14T04:57:26.922Z,1007.87
2022-08-14T04:58:32.390Z,1007.88
2022-08-14T04:59:26.912Z,1007.82
2022-08-14T05:00:26.908Z,1007.83
2022-08-14T05:01:26.944Z,1007.82
2022-08-14T05:02:26.913Z,1007.83
2022-08-14T05:03:26.856Z,1007.85
2022-08-14T05:04:26.847Z,1007.84
2022-08-14T05:05:26.869Z,1007.83
2022-08-14T05:06:38.161Z,1007.83
2022-08-14T05:07:54.041Z,1007.81
2022-08-14T05:08:32.135Z,1007.79
2022-08-14T05:09:28.676Z,1007.79
2022-08-14T05:10:32.249Z,1007.78
2022-08-14T05:11:26.783Z,1007.81
2022-08-14T05:13:10.967Z,1007.83
2022-08-14T05:13:30.761Z,1007.82
2022-08-14T05:14:45.277Z,1007.83
2022-08-14T05:15:26.737Z,1007.81
2022-08-14T05:16:26.746Z,1007.86
2022-08-14T05:17:31.928Z,1007.81
2022-08-14T05:18:52.912Z,1007.78
2022-08-14T05:19:28.970Z,1007.74
2022-08-14T05:21:55.987Z,1007.74
2022-08-14T05:22:15.537Z,1007.74
2022-08-14T05:22:27.018Z,1007.74
2022-08-14T05:23:26.643Z,1007.74
2022-08-14T05:24:26.639Z,1007.75
2022-08-14T05:25:33.469Z,1007.74
2022-08-14T05:26:26.620Z,1007.69
2022-08-14T05:27:31.005Z,1007.75
2022-08-14T05:28:26.603Z,1007.74
2022-08-14T05:29:26.584Z,1007.76
2022-08-14T05:30:26.571Z,1007.75
2022-08-14T05:31:39.599Z,1007.70
2022-08-14T05:32:27.734Z,1007.70
2022-08-14T05:33:26.533Z,1007.68
2022-08-14T05:34:28.760Z,1007.66
2022-08-14T05:35:26.526Z,1007.62
2022-08-14T05:36:27.179Z,1007.60
2022-08-14T05:37:26.629Z,1007.59
2022-08-14T05:38:32.049Z,1007.52
2022-08-14T05:39:26.518Z,1007.53
2022-08-14T05:40:26.466Z,1007.51
2022-08-14T05:41:33.681Z,1007.50
2022-08-14T05:42:29.336Z,1007.48
2022-08-14T05:43:40.619Z,1007.51
2022-08-14T05:44:29.933Z,1007.49
2022-08-14T05:45:26.408Z,1007.51
2022-08-14T05:46:26.402Z,1007.49
2022-08-14T05:47:34.088Z,1007.47
2022-08-14T05:48:33.837Z,1007.46
2022-08-14T05:49:33.177Z,1007.44
2022-08-14T05:50:26.366Z,1007.46
2022-08-14T05:51:26.366Z,1007.47
2022-08-14T05:52:38.396Z,1007.43
2022-08-14T05:53:26.328Z,1007.46
2022-08-14T05:54:27.206Z,1007.41
2022-08-14T05:55:26.305Z,1007.44
2022-08-14T05:56:26.291Z,1007.40
2022-08-14T05:57:26.280Z,1007.42
2022-08-14T05:58:33.847Z,1007.42
2022-08-14T05:59:36.478Z,1007.40
2022-08-14T06:00:29.982Z,1007.39
2022-08-14T06:01:26.327Z,1007.38
2022-08-14T06:02:26.240Z,1007.38
2022-08-14T06:03:26.219Z,1007.33
2022-08-14T06:04:26.223Z,1007.38
2022-08-14T06:05:28.786Z,1007.42
2022-08-14T06:06:26.213Z,1007.42
2022-08-14T06:07:26.168Z,1007.40
2022-08-14T06:08:35.856Z,1007.41
2022-08-14T06:09:26.161Z,1007.44
2022-08-14T06:10:28.338Z,1007.44
2022-08-14T06:11:30.605Z,1007.38
2022-08-14T06:12:55.356Z,1007.39
2022-08-14T06:13:31.472Z,1007.35
2022-08-14T06:14:26.113Z,1007.38
2022-08-14T06:15:29.678Z,1007.34
2022-08-14T06:16:26.075Z,1007.35
2022-08-14T06:17:26.347Z,1007.33
2022-08-14T06:18:26.050Z,1007.31
2022-08-14T06:19:26.287Z,1007.30
2022-08-14T06:20:26.055Z,1007.25
2022-08-14T06:21:26.104Z,1007.24
2022-08-14T06:22:26.010Z,1007.22
2022-08-14T06:23:26.005Z,1007.19
2022-08-14T06:24:26.195Z,1007.19
2022-08-14T06:25:26.118Z,1007.19
2022-08-14T06:26:29.925Z,1007.18
2022-08-14T06:27:25.954Z,1007.17
2022-08-14T06:28:27.818Z,1007.17
2022-08-14T06:29:25.942Z,1007.14
2022-08-14T06:30:30.376Z,1007.15
2022-08-14T06:31:25.932Z,1007.15
2022-08-14T06:32:36.645Z,1007.13
2022-08-14T06:33:45.689Z,1007.13
2022-08-14T06:35:13.369Z,1007.17
2022-08-14T06:35:26.529Z,1007.16
2022-08-14T06:36:25.865Z,1007.17
2022-08-14T06:37:25.906Z,1007.16
2022-08-14T06:38:25.845Z,1007.15
2022-08-14T06:39:36.351Z,1007.14
2022-08-14T06:40:27.695Z,1007.13
2022-08-14T06:41:56.689Z,1007.15
2022-08-14T06:42:33.054Z,1007.13
2022-08-14T06:43:31.869Z,1007.17
2022-08-14T06:44:32.197Z,1007.21
2022-08-14T06:45:26.422Z,1007.20
2022-08-14T06:46:33.991Z,1007.22
2022-08-14T06:47:25.786Z,1007.22
2022-08-14T06:48:25.755Z,1007.25
2022-08-14T06:49:25.730Z,1007.25
2022-08-14T06:50:27.679Z,1007.26
2022-08-14T06:51:25.699Z,1007.28
2022-08-14T06:52:25.708Z,1007.27
2022-08-14T06:53:27.628Z,1007.29
2022-08-14T06:54:31.176Z,1007.32
2022-08-14T06:55:27.963Z,1007.30
2022-08-14T06:56:25.655Z,1007.35
2022-08-14T06:57:25.650Z,1007.35
2022-08-14T06:58:28.541Z,1007.37
2022-08-14T06:59:25.612Z,1007.28
2022-08-14T07:00:27.053Z,1007.28
2022-08-14T07:01:27.493Z,1007.27
2022-08-14T07:02:25.586Z,1007.27
2022-08-14T07:03:25.588Z,1007.22
2022-08-14T07:04:25.578Z,1007.27
2022-08-14T07:05:25.556Z,1007.24
2022-08-14T07:06:46.907Z,1007.25
2022-08-14T07:07:25.531Z,1007.23
2022-08-14T07:08:25.775Z,1007.22
2022-08-14T07:09:25.520Z,1007.22
2022-08-14T07:10:25.654Z,1007.18
2022-08-14T07:11:25.486Z,1007.16
2022-08-14T07:12:54.465Z,1007.15
2022-08-14T07:13:25.469Z,1007.12
2022-08-14T07:14:25.454Z,1007.12
2022-08-14T07:15:25.454Z,1007.11
2022-08-14T07:16:27.439Z,1007.08
2022-08-14T07:17:25.426Z,1007.09
2022-08-14T07:18:25.418Z,1007.01
2022-08-14T07:19:25.399Z,1006.97
2022-08-14T07:20:31.271Z,1006.96
2022-08-14T07:21:25.389Z,1006.96
2022-08-14T07:22:25.377Z,1006.97
2022-08-14T07:23:25.495Z,1006.97
2022-08-14T07:24:26.464Z,1007.00
2022-08-14T07:25:32.729Z,1007.00
2022-08-14T07:26:25.379Z,1007.02
2022-08-14T07:27:25.308Z,1006.99
2022-08-14T07:28:25.308Z,1006.99
2022-08-14T07:29:28.894Z,1007.01
2022-08-14T07:30:34.011Z,1006.99
2022-08-14T07:31:25.286Z,1007.01
2022-08-14T07:32:34.070Z,1006.98
2022-08-14T07:33:29.038Z,1007.00
2022-08-14T07:34:36.674Z,1007.00
2022-08-14T07:35:25.231Z,1007.01
2022-08-14T07:36:30.335Z,1007.00
2022-08-14T07:37:25.218Z,1007.00
2022-08-14T07:38:25.202Z,1007.03
2022-08-14T07:39:27.842Z,1007.01
2022-08-14T07:40:27.783Z,1007.01
2022-08-14T07:41:25.209Z,1006.97
2022-08-14T07:42:25.179Z,1006.97
2022-08-14T07:43:25.146Z,1006.99
2022-08-14T07:44:29.155Z,1006.96
2022-08-14T07:45:25.127Z,1006.95
2022-08-14T07:46:29.159Z,1006.97
2022-08-14T07:47:25.098Z,1006.97
2022-08-14T07:48:25.628Z,1006.93
2022-08-14T07:49:25.080Z,1006.96
2022-08-14T07:50:25.066Z,1006.91
2022-08-14T07:51:25.999Z,1006.89
2022-08-14T07:52:30.341Z,1006.85
2022-08-14T07:53:25.059Z,1006.88
2022-08-14T07:54:29.819Z,1006.85
2022-08-14T07:55:25.019Z,1006.84
2022-08-14T07:56:47.338Z,1006.84
2022-08-14T07:57:25.302Z,1006.84
2022-08-14T07:58:33.912Z,1006.80
2022-08-14T07:59:41.539Z,1006.81
2022-08-14T08:00:30.848Z,1006.78
2022-08-14T08:01:24.967Z,1006.79
2022-08-14T08:02:24.959Z,1006.80
2022-08-14T08:03:24.963Z,1006.79
2022-08-14T08:04:25.423Z,1006.79
2022-08-14T08:05:24.958Z,1006.86
2022-08-14T08:06:24.901Z,1006.88
2022-08-14T08:07:29.543Z,1006.90
2022-08-14T08:08:27.181Z,1006.91
2022-08-14T08:09:24.893Z,1006.89
2022-08-14T08:10:46.017Z,1006.86
2022-08-14T08:11:24.856Z,1006.89
2022-08-14T08:12:28.104Z,1006.88
2022-08-14T08:13:24.834Z,1006.83
2022-08-14T08:14:24.829Z,1006.82
2022-08-14T08:15:24.822Z,1006.79
2022-08-14T08:16:24.803Z,1006.80
2022-08-14T08:17:24.790Z,1006.79
2022-08-14T08:18:29.069Z,1006.70
2022-08-14T08:19:24.771Z,1006.71
2022-08-14T08:20:24.776Z,1006.71
2022-08-14T08:21:27.078Z,1006.72
2022-08-14T08:22:27.475Z,1006.71
2022-08-14T08:23:30.230Z,1006.71
2022-08-14T08:24:24.726Z,1006.73
2022-08-14T08:25:24.715Z,1006.74
2022-08-14T08:26:24.707Z,1006.71
2022-08-14T08:27:24.683Z,1006.70
2022-08-14T08:28:26.469Z,1006.69
2022-08-14T08:29:28.535Z,1006.67
2022-08-14T08:30:24.644Z,1006.60
2022-08-14T08:31:24.650Z,1006.64
2022-08-14T08:32:30.022Z,1006.58
2022-08-14T08:33:24.629Z,1006.59
2022-08-14T08:34:24.607Z,1006.64
2022-08-14T08:35:24.590Z,1006.61
2022-08-14T08:36:24.587Z,1006.63
2022-08-14T08:37:25.319Z,1006.65
2022-08-14T08:39:17.002Z,1006.63
2022-08-14T08:39:30.724Z,1006.66
2022-08-14T08:40:24.653Z,1006.65
2022-08-14T08:41:24.552Z,1006.65
2022-08-14T08:42:31.265Z,1006.63
2022-08-14T08:43:24.680Z,1006.67
2022-08-14T08:44:31.815Z,1006.63
2022-08-14T08:45:24.500Z,1006.61
2022-08-14T08:46:24.485Z,1006.59
2022-08-14T08:47:24.475Z,1006.55
2022-08-14T08:48:31.517Z,1006.57
2022-08-14T08:49:24.463Z,1006.51
2022-08-14T08:50:31.589Z,1006.49
2022-08-14T08:51:25.251Z,1006.47
2022-08-14T08:52:30.972Z,1006.46
2022-08-14T08:53:24.444Z,1006.46
2022-08-14T08:54:26.796Z,1006.44
2022-08-14T08:55:24.395Z,1006.48
2022-08-14T08:56:30.659Z,1006.44
2022-08-14T08:57:24.486Z,1006.45
2022-08-14T08:58:25.030Z,1006.46
2022-08-14T08:59:27.091Z,1006.46
2022-08-14T09:00:26.294Z,1006.43
2022-08-14T09:01:24.368Z,1006.45
2022-08-14T09:02:25.936Z,1006.42
2022-08-14T09:03:24.320Z,1006.40
2022-08-14T09:04:24.314Z,1006.39
2022-08-14T09:05:24.328Z,1006.40
2022-08-14T09:07:00.662Z,1006.39
2022-08-14T09:07:24.275Z,1006.37
2022-08-14T09:08:31.833Z,1006.33
2022-08-14T09:09:24.261Z,1006.33
2022-08-14T09:10:27.100Z,1006.34
2022-08-14T09:11:24.253Z,1006.31
2022-08-14T09:12:24.220Z,1006.35
2022-08-14T09:13:24.206Z,1006.35
2022-08-14T09:14:24.248Z,1006.33
2022-08-14T09:15:24.372Z,1006.35
2022-08-14T09:16:25.084Z,1006.29
2022-08-14T09:17:25.694Z,1006.30
2022-08-14T09:18:24.139Z,1006.27
2022-08-14T09:19:24.147Z,1006.25
2022-08-14T09:20:29.452Z,1006.29
2022-08-14T09:21:24.897Z,1006.27
2022-08-14T09:22:35.681Z,1006.22
2022-08-14T09:23:34.527Z,1006.20
2022-08-14T09:24:35.411Z,1006.19
2022-08-14T09:25:59.993Z,1006.19
2022-08-14T09:26:24.091Z,1006.22
2022-08-14T09:27:24.044Z,1006.21
2022-08-14T09:28:24.107Z,1006.24
2022-08-14T09:29:24.043Z,1006.22
2022-08-14T09:30:33.184Z,1006.23
2022-08-14T09:31:24.025Z,1006.24
2022-08-14T09:32:58.783Z,1006.25
2022-08-14T09:33:23.991Z,1006.24
2022-08-14T09:34:28.222Z,1006.22
2022-08-14T09:35:23.961Z,1006.19
2022-08-14T09:36:23.954Z,1006.19
2022-08-14T09:37:23.956Z,1006.21
2022-08-14T09:38:26.124Z,1006.18
2022-08-14T09:39:23.924Z,1006.21
2022-08-14T09:40:24.028Z,1006.18
2022-08-14T09:41:23.905Z,1006.15
2022-08-14T09:42:33.193Z,1006.16
2022-08-14T09:43:23.897Z,1006.17
2022-08-14T09:44:23.872Z,1006.12
2022-08-14T09:45:23.865Z,1006.10
2022-08-14T09:46:25.685Z,1006.10
2022-08-14T09:47:23.839Z,1006.06
2022-08-14T09:48:30.141Z,1006.08
2022-08-14T09:49:23.830Z,1006.03
2022-08-14T09:50:25.927Z,1006.08
2022-08-14T09:51:25.375Z,1006.05
2022-08-14T09:52:34.292Z,1006.03
2022-08-14T09:53:23.790Z,1006.03
2022-08-14T09:54:24.040Z,1005.98
2022-08-14T09:55:23.751Z,1006.03
2022-08-14T09:56:30.470Z,1006.02
2022-08-14T09:57:23.737Z,1006.01
2022-08-14T09:58:24.798Z,1006.03
2022-08-14T09:59:23.726Z,1005.97
2022-08-14T10:00:29.168Z,1006.00
2022-08-14T10:01:24.864Z,1006.02
2022-08-14T10:02:23.715Z,1006.00
2022-08-14T10:03:23.702Z,1006.01
2022-08-14T10:04:33.764Z,1006.01
2022-08-14T10:05:23.668Z,1005.95
2022-08-14T10:06:23.678Z,1005.93
2022-08-14T10:07:23.633Z,1005.91
2022-08-14T10:08:26.430Z,1005.93
2022-08-14T10:09:24.715Z,1005.89
2022-08-14T10:10:24.105Z,1005.90
2022-08-14T10:11:24.015Z,1005.85
2022-08-14T10:12:28.736Z,1005.81
2022-08-14T10:13:23.748Z,1005.82
2022-08-14T10:14:29.297Z,1005.80
2022-08-14T10:15:23.854Z,1005.77
2022-08-14T10:16:27.622Z,1005.74
2022-08-14T10:17:23.527Z,1005.73
2022-08-14T10:18:23.541Z,1005.70
2022-08-14T10:19:23.504Z,1005.67
2022-08-14T10:20:39.476Z,1005.62
2022-08-14T10:21:23.573Z,1005.63
2022-08-14T10:23:13.056Z,1005.59
2022-08-14T10:23:26.771Z,1005.54
2022-08-14T10:24:23.462Z,1005.52
2022-08-14T10:25:23.455Z,1005.56
2022-08-14T10:26:28.538Z,1005.46
2022-08-14T10:27:23.458Z,1005.53
2022-08-14T10:28:51.488Z,1005.54
2022-08-14T10:29:23.860Z,1005.59
2022-08-14T10:30:25.684Z,1005.56
2022-08-14T10:31:25.351Z,1005.48
2022-08-14T10:32:28.416Z,1005.54
2022-08-14T10:33:23.369Z,1005.46
2022-08-14T10:34:33.361Z,1005.48
2022-08-14T10:35:23.395Z,1005.42
2022-08-14T10:36:37.033Z,1005.39
2022-08-14T10:40:10.594Z,1005.35
2022-08-14T10:41:54.295Z,1005.30
2022-08-14T10:42:54.974Z,1005.25
2022-08-14T10:43:54.946Z,1005.21
2022-08-14T10:44:54.936Z,1005.19
2022-08-14T10:46:03.918Z,1005.21
2022-08-14T10:47:39.329Z,1005.16
2022-08-14T10:48:23.607Z,1005.19
2022-08-14T10:48:54.895Z,1005.17
2022-08-14T10:49:54.882Z,1005.17
2022-08-14T10:50:54.879Z,1005.14
2022-08-14T10:51:54.867Z,1005.12
2022-08-14T10:52:54.856Z,1005.14
2022-08-14T10:53:56.735Z,1005.12
2022-08-14T10:54:56.165Z,1005.14
2022-08-14T10:55:54.836Z,1005.12
2022-08-14T10:56:54.808Z,1005.05
2022-08-14T10:57:54.801Z,1005.09
2022-08-14T10:58:54.802Z,1005.09
2022-08-14T10:59:54.792Z,1005.08
2022-08-14T11:00:56.538Z,1005.03
2022-08-14T11:01:54.753Z,1005.04
2022-08-14T11:02:55.361Z,1005.05
2022-08-14T11:03:55.299Z,1005.02
2022-08-14T11:04:57.354Z,1004.97
2022-08-14T11:05:55.774Z,1005.01
2022-08-14T11:06:54.699Z,1005.03
2022-08-14T11:07:55.401Z,1005.00
2022-08-14T11:08:54.714Z,1004.93
2022-08-14T11:09:54.669Z,1004.96
2022-08-14T11:10:54.670Z,1004.94
2022-08-14T11:11:55.108Z,1004.91
2022-08-14T11:12:54.640Z,1004.93
2022-08-14T11:13:54.618Z,1004.88
2022-08-14T11:14:59.036Z,1004.94
2022-08-14T11:15:54.605Z,1004.91
2022-08-14T11:16:54.610Z,1004.91
2022-08-14T11:17:54.580Z,1004.93
2022-08-14T11:18:55.874Z,1004.95
2022-08-14T11:19:54.588Z,1004.87
2022-08-14T11:20:54.569Z,1004.86
2022-08-14T11:21:56.118Z,1004.81
2022-08-14T11:22:57.989Z,1004.82
2022-08-14T11:23:57.272Z,1004.83
2022-08-14T11:24:56.045Z,1004.84
2022-08-14T11:25:54.511Z,1004.85
2022-08-14T11:26:54.501Z,1004.85
2022-08-14T11:27:54.940Z,1004.81
2022-08-14T11:28:54.494Z,1004.79
2022-08-14T11:30:00.316Z,1004.80
2022-08-14T11:30:54.708Z,1004.85
2022-08-14T11:31:54.447Z,1004.85
2022-08-14T11:32:54.427Z,1004.82
2022-08-14T11:33:54.499Z,1004.87
2022-08-14T11:34:54.402Z,1004.85
2022-08-14T11:35:59.719Z,1004.83
2022-08-14T11:37:03.813Z,1004.85
2022-08-14T11:37:54.431Z,1004.84
2022-08-14T11:38:54.354Z,1004.85
2022-08-14T11:39:54.414Z,1004.86
2022-08-14T11:40:54.433Z,1004.81
2022-08-14T11:41:56.010Z,1004.83
2022-08-14T11:42:57.192Z,1004.84
2022-08-14T11:43:57.848Z,1004.82
2022-08-14T11:44:56.657Z,1004.83
2022-08-14T11:45:54.285Z,1004.77
2022-08-14T11:46:54.269Z,1004.80
2022-08-14T11:48:13.122Z,1004.77
2022-08-14T11:49:05.584Z,1004.81
2022-08-14T11:49:54.249Z,1004.75
2022-08-14T11:50:54.252Z,1004.79
2022-08-14T11:51:54.610Z,1004.74
2022-08-14T11:52:54.255Z,1004.76
2022-08-14T11:53:54.223Z,1004.76
2022-08-14T11:54:54.188Z,1004.76
2022-08-14T11:55:54.175Z,1004.80
2022-08-14T11:56:54.171Z,1004.77
2022-08-14T11:57:59.610Z,1004.77
2022-08-14T11:58:54.158Z,1004.73
2022-08-14T11:59:54.134Z,1004.74
2022-08-14T12:00:54.122Z,1004.69
2022-08-14T12:01:54.114Z,1004.70
2022-08-14T12:03:03.467Z,1004.71
2022-08-14T12:03:57.390Z,1004.69
2022-08-14T12:04:54.128Z,1004.69
2022-08-14T12:05:54.074Z,1004.68
2022-08-14T12:06:54.061Z,1004.67
2022-08-14T12:07:54.051Z,1004.66
2022-08-14T12:08:54.097Z,1004.67
2022-08-14T12:09:56.230Z,1004.68